Bono, Ohio
Current Conditions -  °F | °C
As of 5:53 AM on Sunday 26 Oct 2014 (Local Time) from KTDZ Reporting Station
Clear Clear  
Wind Chill: 36°   Ceiling: Unl
Heat Index: 40°   Visibility: 10mi
Dew Point: 32°   Wind: 6mph
Humidity: 73%   Direction: 260°W
Pressure: 29.92"   Gusts: NA
Location:  41.5863°N, 83.2966°W
Report Text: KTDZ 260953Z AUTO 26005KT 10SM CLR 04/00 A2992 RMK AO2 SLP132 T00440000 TSNO
Loading
Personal Weather Stations






























Interactive Weather Map
Tropical Storm Tracking
New forecast layout! Learn more

10-Day Weather Forecast

Advertisements
Track Severe Weather on mobile